Phoenix, Arizona
Current Conditions -  °F | °C
As of 4:51 AM on Friday 31 Oct 2014 (Local Time) from KPHX Reporting Station
Broken Clouds Broken Clouds  
Wind Chill: 21°   Ceiling: 22000
Heat Index: 21°   Visibility: 10mi
Dew Point:   Wind: 7mph
Humidity: 39%   Direction: 100°E
Pressure: 29.9"   Gusts: NA
Location:  33.45°N, 112.08°W
Report Text: KPHX 311151Z 10006KT 10SM BKN220 21/06 A2990 RMK AO2 SLP109 T02060061 10233 20200 53002
Loading
Personal Weather Stations






























Interactive Weather Map New forecast layout! Learn more

10-Day Weather Forecast

Advertisements
Track Severe Weather on mobile